sensor_id;sensor_type;location;lat;lon;timestamp;temperature;humidity
46117;DHT22;32591;48.102;11.772;2023-04-24T00:00:44;10.80;99.90
46117;DHT22;32591;48.102;11.772;2023-04-24T00:03:11;10.80;99.90
46117;DHT22;32591;48.102;11.772;2023-04-24T00:05:38;10.90;99.90
46117;DHT22;32591;48.102;11.772;2023-04-24T00:08:06;10.90;99.90
46117;DHT22;32591;48.102;11.772;2023-04-24T00:10:33;10.90;99.90
46117;DHT22;32591;48.102;11.772;2023-04-24T00:13:00;10.90;99.90
46117;DHT22;32591;48.102;11.772;2023-04-24T00:15:29;10.80;99.90
46117;DHT22;32591;48.102;11.772;2023-04-24T00:17:58;10.80;99.90
46117;DHT22;32591;48.102;11.772;2023-04-24T00:20:27;10.80;99.90
46117;DHT22;32591;48.102;11.772;2023-04-24T00:22:55;10.80;99.90
46117;DHT22;32591;48.102;11.772;2023-04-24T00:25:22;10.80;99.90
46117;DHT22;32591;48.102;11.772;2023-04-24T00:27:48;10.80;99.90
46117;DHT22;32591;48.102;11.772;2023-04-24T00:30:15;10.80;99.90
46117;DHT22;32591;48.102;11.772;2023-04-24T00:32:44;10.80;99.90
46117;DHT22;32591;48.102;11.772;2023-04-24T00:35:11;10.80;99.90
46117;DHT22;32591;48.102;11.772;2023-04-24T00:37:38;10.80;99.90
46117;DHT22;32591;48.102;11.772;2023-04-24T00:40:06;10.90;99.90
46117;DHT22;32591;48.102;11.772;2023-04-24T00:42:34;10.80;99.90
46117;DHT22;32591;48.102;11.772;2023-04-24T00:45:01;10.50;99.90
46117;DHT22;32591;48.102;11.772;2023-04-24T00:47:29;10.80;99.90
46117;DHT22;32591;48.102;11.772;2023-04-24T00:49:58;10.90;99.90
46117;DHT22;32591;48.102;11.772;2023-04-24T00:52:25;10.90;99.90
46117;DHT22;32591;48.102;11.772;2023-04-24T00:54:54;10.90;99.90
46117;DHT22;32591;48.102;11.772;2023-04-24T00:57:21;10.70;99.90
46117;DHT22;32591;48.102;11.772;2023-04-24T00:59:49;10.60;99.90
46117;DHT22;32591;48.102;11.772;2023-04-24T01:02:16;10.60;99.90
46117;DHT22;32591;48.102;11.772;2023-04-24T01:04:43;10.60;99.90
46117;DHT22;32591;48.102;11.772;2023-04-24T01:07:12;10.60;99.90
46117;DHT22;32591;48.102;11.772;2023-04-24T01:09:40;10.60;99.90
46117;DHT22;32591;48.102;11.772;2023-04-24T01:12:07;10.50;99.90
46117;DHT22;32591;48.102;11.772;2023-04-24T01:14:35;10.50;99.90
46117;DHT22;32591;48.102;11.772;2023-04-24T01:17:02;10.40;99.90
46117;DHT22;32591;48.102;11.772;2023-04-24T01:19:28;10.40;99.90
46117;DHT22;32591;48.102;11.772;2023-04-24T01:21:58;10.30;99.90
46117;DHT22;32591;48.102;11.772;2023-04-24T01:24:30;10.20;99.90
46117;DHT22;32591;48.102;11.772;2023-04-24T01:26:57;10.20;99.90
46117;DHT22;32591;48.102;11.772;2023-04-24T01:29:24;10.10;99.90
46117;DHT22;32591;48.102;11.772;2023-04-24T01:31:51;10.10;99.90
46117;DHT22;32591;48.102;11.772;2023-04-24T01:34:18;10.10;99.90
46117;DHT22;32591;48.102;11.772;2023-04-24T01:36:45;10.10;99.90
46117;DHT22;32591;48.102;11.772;2023-04-24T01:39:13;10.10;99.90
46117;DHT22;32591;48.102;11.772;2023-04-24T01:41:42;10.20;99.90
46117;DHT22;32591;48.102;11.772;2023-04-24T01:44:09;10.30;99.90
46117;DHT22;32591;48.102;11.772;2023-04-24T01:46:36;10.20;99.90
46117;DHT22;32591;48.102;11.772;2023-04-24T01:49:04;10.20;99.90
46117;DHT22;32591;48.102;11.772;2023-04-24T01:51:31;10.20;99.90
46117;DHT22;32591;48.102;11.772;2023-04-24T01:53:58;10.10;99.90
46117;DHT22;32591;48.102;11.772;2023-04-24T01:56:25;10.00;99.90
46117;DHT22;32591;48.102;11.772;2023-04-24T01:58:57;10.00;99.90
46117;DHT22;32591;48.102;11.772;2023-04-24T02:01:24;10.00;99.90
46117;DHT22;32591;48.102;11.772;2023-04-24T02:03:51;10.00;99.90
46117;DHT22;32591;48.102;11.772;2023-04-24T02:06:18;10.00;99.90
46117;DHT22;32591;48.102;11.772;2023-04-24T02:08:45;9.90;99.90
46117;DHT22;32591;48.102;11.772;2023-04-24T02:11:12;9.90;99.90
46117;DHT22;32591;48.102;11.772;2023-04-24T02:13:39;9.90;99.90
46117;DHT22;32591;48.102;11.772;2023-04-24T02:16:07;9.80;99.90
46117;DHT22;32591;48.102;11.772;2023-04-24T02:18:34;9.80;99.90
46117;DHT22;32591;48.102;11.772;2023-04-24T02:21:01;9.80;99.90
46117;DHT22;32591;48.102;11.772;2023-04-24T02:23:28;9.90;99.90
46117;DHT22;32591;48.102;11.772;2023-04-24T02:25:56;9.90;99.90
46117;DHT22;32591;48.102;11.772;2023-04-24T02:28:23;9.90;99.90
46117;DHT22;32591;48.102;11.772;2023-04-24T02:30:50;9.80;99.90
46117;DHT22;32591;48.102;11.772;2023-04-24T02:33:18;9.70;99.90
46117;DHT22;32591;48.102;11.772;2023-04-24T02:35:45;9.70;99.90
46117;DHT22;32591;48.102;11.772;2023-04-24T02:38:12;9.70;99.90
46117;DHT22;32591;48.102;11.772;2023-04-24T02:40:39;9.70;99.90
46117;DHT22;32591;48.102;11.772;2023-04-24T02:43:06;9.70;99.90
46117;DHT22;32591;48.102;11.772;2023-04-24T02:45:33;9.60;99.90
46117;DHT22;32591;48.102;11.772;2023-04-24T02:48:00;9.60;99.90
46117;DHT22;32591;48.102;11.772;2023-04-24T02:50:28;9.60;99.90
46117;DHT22;32591;48.102;11.772;2023-04-24T02:52:55;9.60;99.90
46117;DHT22;32591;48.102;11.772;2023-04-24T02:55:22;9.60;99.90
46117;DHT22;32591;48.102;11.772;2023-04-24T02:57:49;9.60;99.90
46117;DHT22;32591;48.102;11.772;2023-04-24T03:00:16;9.50;99.90
46117;DHT22;32591;48.102;11.772;2023-04-24T03:02:44;9.50;99.90
46117;DHT22;32591;48.102;11.772;2023-04-24T03:05:11;9.50;99.90
46117;DHT22;32591;48.102;11.772;2023-04-24T03:07:39;9.40;99.90
46117;DHT22;32591;48.102;11.772;2023-04-24T03:10:07;9.50;99.90
46117;DHT22;32591;48.102;11.772;2023-04-24T03:12:35;9.50;99.90
46117;DHT22;32591;48.102;11.772;2023-04-24T03:15:02;9.40;99.90
46117;DHT22;32591;48.102;11.772;2023-04-24T03:17:29;9.50;99.90
46117;DHT22;32591;48.102;11.772;2023-04-24T03:19:56;9.50;99.90
46117;DHT22;32591;48.102;11.772;2023-04-24T03:22:23;9.50;99.90
46117;DHT22;32591;48.102;11.772;2023-04-24T03:24:52;9.50;99.90
46117;DHT22;32591;48.102;11.772;2023-04-24T03:27:20;9.40;99.90
46117;DHT22;32591;48.102;11.772;2023-04-24T03:29:47;9.40;99.90
46117;DHT22;32591;48.102;11.772;2023-04-24T03:32:17;9.40;99.90
46117;DHT22;32591;48.102;11.772;2023-04-24T03:34:43;9.40;99.90
46117;DHT22;32591;48.102;11.772;2023-04-24T03:37:10;9.30;99.90
46117;DHT22;32591;48.102;11.772;2023-04-24T03:39:37;9.30;99.90
46117;DHT22;32591;48.102;11.772;2023-04-24T03:42:05;9.20;99.90
46117;DHT22;32591;48.102;11.772;2023-04-24T03:44:34;9.20;99.90
46117;DHT22;32591;48.102;11.772;2023-04-24T03:47:01;9.20;99.90
46117;DHT22;32591;48.102;11.772;2023-04-24T03:49:28;9.20;99.90
46117;DHT22;32591;48.102;11.772;2023-04-24T03:51:54;9.20;99.90
46117;DHT22;32591;48.102;11.772;2023-04-24T03:54:21;9.10;99.90
46117;DHT22;32591;48.102;11.772;2023-04-24T03:56:48;9.20;99.90
46117;DHT22;32591;48.102;11.772;2023-04-24T03:59:17;9.20;99.90
46117;DHT22;32591;48.102;11.772;2023-04-24T04:01:44;9.20;99.90
46117;DHT22;32591;48.102;11.772;2023-04-24T04:04:11;9.30;99.90
46117;DHT22;32591;48.102;11.772;2023-04-24T04:06:38;9.30;99.90
46117;DHT22;32591;48.102;11.772;2023-04-24T04:09:05;9.40;99.90
46117;DHT22;32591;48.102;11.772;2023-04-24T04:11:32;9.30;99.90
46117;DHT22;32591;48.102;11.772;2023-04-24T04:14:01;9.40;99.90
46117;DHT22;32591;48.102;11.772;2023-04-24T04:16:29;9.40;99.90
46117;DHT22;32591;48.102;11.772;2023-04-24T04:18:56;9.40;99.90
46117;DHT22;32591;48.102;11.772;2023-04-24T04:21:24;9.50;99.90
46117;DHT22;32591;48.102;11.772;2023-04-24T04:23:52;9.50;99.90
46117;DHT22;32591;48.102;11.772;2023-04-24T04:26:19;9.50;99.90
46117;DHT22;32591;48.102;11.772;2023-04-24T04:28:46;9.60;99.90
46117;DHT22;32591;48.102;11.772;2023-04-24T04:31:14;9.60;99.90
46117;DHT22;32591;48.102;11.772;2023-04-24T04:33:42;9.70;99.90
46117;DHT22;32591;48.102;11.772;2023-04-24T04:36:09;9.80;99.90
46117;DHT22;32591;48.102;11.772;2023-04-24T04:38:37;9.80;99.90
46117;DHT22;32591;48.102;11.772;2023-04-24T04:41:06;9.90;99.90
46117;DHT22;32591;48.102;11.772;2023-04-24T04:43:33;9.90;99.90
46117;DHT22;32591;48.102;11.772;2023-04-24T04:46:00;9.90;99.90
46117;DHT22;32591;48.102;11.772;2023-04-24T04:48:28;9.90;99.90
46117;DHT22;32591;48.102;11.772;2023-04-24T04:50:58;9.90;99.90
46117;DHT22;32591;48.102;11.772;2023-04-24T04:53:25;9.90;99.90
46117;DHT22;32591;48.102;11.772;2023-04-24T04:55:52;9.90;99.90
46117;DHT22;32591;48.102;11.772;2023-04-24T04:58:19;9.90;99.90
46117;DHT22;32591;48.102;11.772;2023-04-24T05:00:46;9.90;99.90
46117;DHT22;32591;48.102;11.772;2023-04-24T05:03:14;10.00;99.90
46117;DHT22;32591;48.102;11.772;2023-04-24T05:05:41;9.90;99.90
46117;DHT22;32591;48.102;11.772;2023-04-24T05:08:09;9.90;99.90
46117;DHT22;32591;48.102;11.772;2023-04-24T05:10:36;9.90;99.90
46117;DHT22;32591;48.102;11.772;2023-04-24T05:13:03;9.90;99.90
46117;DHT22;32591;48.102;11.772;2023-04-24T05:15:30;9.80;99.90
46117;DHT22;32591;48.102;11.772;2023-04-24T05:17:57;9.80;99.90
46117;DHT22;32591;48.102;11.772;2023-04-24T05:20:24;9.70;99.90
46117;DHT22;32591;48.102;11.772;2023-04-24T05:22:51;9.60;99.90
46117;DHT22;32591;48.102;11.772;2023-04-24T05:25:19;9.50;99.90
46117;DHT22;32591;48.102;11.772;2023-04-24T05:27:46;9.60;99.90
46117;DHT22;32591;48.102;11.772;2023-04-24T05:30:14;9.60;99.90
46117;DHT22;32591;48.102;11.772;2023-04-24T05:32:40;9.60;99.90
46117;DHT22;32591;48.102;11.772;2023-04-24T05:35:07;9.50;99.90
46117;DHT22;32591;48.102;11.772;2023-04-24T05:37:35;9.50;99.90
46117;DHT22;32591;48.102;11.772;2023-04-24T05:40:02;9.60;99.90
46117;DHT22;32591;48.102;11.772;2023-04-24T05:42:32;9.70;99.90
46117;DHT22;32591;48.102;11.772;2023-04-24T05:44:59;9.70;99.90
46117;DHT22;32591;48.102;11.772;2023-04-24T05:47:26;9.80;99.90
46117;DHT22;32591;48.102;11.772;2023-04-24T05:49:52;9.90;99.90
46117;DHT22;32591;48.102;11.772;2023-04-24T05:52:20;9.90;99.90
46117;DHT22;32591;48.102;11.772;2023-04-24T05:54:47;9.90;99.90
46117;DHT22;32591;48.102;11.772;2023-04-24T05:57:14;9.80;99.90
46117;DHT22;32591;48.102;11.772;2023-04-24T05:59:42;9.80;99.90
46117;DHT22;32591;48.102;11.772;2023-04-24T06:02:09;9.80;99.90
46117;DHT22;32591;48.102;11.772;2023-04-24T06:04:36;9.80;99.90
46117;DHT22;32591;48.102;11.772;2023-04-24T06:07:03;9.70;99.90
46117;DHT22;32591;48.102;11.772;2023-04-24T06:09:30;9.70;99.90
46117;DHT22;32591;48.102;11.772;2023-04-24T06:11:57;9.60;99.90
46117;DHT22;32591;48.102;11.772;2023-04-24T06:14:24;9.60;99.90
46117;DHT22;32591;48.102;11.772;2023-04-24T06:16:52;9.60;99.90
46117;DHT22;32591;48.102;11.772;2023-04-24T06:19:19;9.70;99.90
46117;DHT22;32591;48.102;11.772;2023-04-24T06:21:46;9.90;99.90
46117;DHT22;32591;48.102;11.772;2023-04-24T06:24:14;9.90;99.90
46117;DHT22;32591;48.102;11.772;2023-04-24T06:26:42;9.90;99.90
46117;DHT22;32591;48.102;11.772;2023-04-24T06:29:09;9.80;99.90
46117;DHT22;32591;48.102;11.772;2023-04-24T06:31:35;9.90;99.90
46117;DHT22;32591;48.102;11.772;2023-04-24T06:34:04;9.90;99.90
46117;DHT22;32591;48.102;11.772;2023-04-24T06:36:31;9.90;99.90
46117;DHT22;32591;48.102;11.772;2023-04-24T06:39:00;9.90;99.90
46117;DHT22;32591;48.102;11.772;2023-04-24T06:41:27;9.90;99.90
46117;DHT22;32591;48.102;11.772;2023-04-24T06:43:55;9.80;99.90
46117;DHT22;32591;48.102;11.772;2023-04-24T06:46:22;9.90;99.90
46117;DHT22;32591;48.102;11.772;2023-04-24T06:48:51;9.90;99.90
46117;DHT22;32591;48.102;11.772;2023-04-24T06:51:22;10.00;99.90
46117;DHT22;32591;48.102;11.772;2023-04-24T06:53:51;10.00;99.90
46117;DHT22;32591;48.102;11.772;2023-04-24T06:56:18;10.00;99.90
46117;DHT22;32591;48.102;11.772;2023-04-24T06:58:45;10.10;99.90
46117;DHT22;32591;48.102;11.772;2023-04-24T07:01:12;10.10;99.90
46117;DHT22;32591;48.102;11.772;2023-04-24T07:03:39;10.10;99.90
46117;DHT22;32591;48.102;11.772;2023-04-24T07:06:07;10.20;99.90
46117;DHT22;32591;48.102;11.772;2023-04-24T07:08:37;10.20;99.90
46117;DHT22;32591;48.102;11.772;2023-04-24T07:11:05;10.20;99.90
46117;DHT22;32591;48.102;11.772;2023-04-24T07:13:32;10.30;99.90
46117;DHT22;32591;48.102;11.772;2023-04-24T07:16:01;10.30;99.90
46117;DHT22;32591;48.102;11.772;2023-04-24T07:18:28;10.30;99.90
46117;DHT22;32591;48.102;11.772;2023-04-24T07:20:56;10.40;99.90
46117;DHT22;32591;48.102;11.772;2023-04-24T07:23:22;10.40;99.90
46117;DHT22;32591;48.102;11.772;2023-04-24T07:25:51;10.50;99.90
46117;DHT22;32591;48.102;11.772;2023-04-24T07:28:18;10.70;99.90
46117;DHT22;32591;48.102;11.772;2023-04-24T07:30:46;10.70;99.90
46117;DHT22;32591;48.102;11.772;2023-04-24T07:33:13;10.90;99.90
46117;DHT22;32591;48.102;11.772;2023-04-24T07:35:40;10.90;99.90
46117;DHT22;32591;48.102;11.772;2023-04-24T07:38:07;10.90;99.90
46117;DHT22;32591;48.102;11.772;2023-04-24T07:40:33;10.90;99.90
46117;DHT22;32591;48.102;11.772;2023-04-24T07:43:01;10.90;99.90
46117;DHT22;32591;48.102;11.772;2023-04-24T07:45:28;11.00;99.90
46117;DHT22;32591;48.102;11.772;2023-04-24T07:47:56;11.10;99.90
46117;DHT22;32591;48.102;11.772;2023-04-24T07:50:23;11.10;99.90
46117;DHT22;32591;48.102;11.772;2023-04-24T07:52:50;11.20;99.90
46117;DHT22;32591;48.102;11.772;2023-04-24T07:55:17;11.10;99.90
46117;DHT22;32591;48.102;11.772;2023-04-24T07:57:44;11.00;99.90
46117;DHT22;32591;48.102;11.772;2023-04-24T08:00:13;11.00;99.90
46117;DHT22;32591;48.102;11.772;2023-04-24T08:02:41;10.90;99.90
46117;DHT22;32591;48.102;11.772;2023-04-24T08:05:08;10.90;99.90
46117;DHT22;32591;48.102;11.772;2023-04-24T08:07:35;10.90;99.90
46117;DHT22;32591;48.102;11.772;2023-04-24T08:10:03;10.90;99.90
46117;DHT22;32591;48.102;11.772;2023-04-24T08:12:30;10.90;99.90
46117;DHT22;32591;48.102;11.772;2023-04-24T08:14:57;10.80;99.90
46117;DHT22;32591;48.102;11.772;2023-04-24T08:17:25;10.80;99.90
46117;DHT22;32591;48.102;11.772;2023-04-24T08:19:53;10.80;99.90
46117;DHT22;32591;48.102;11.772;2023-04-24T08:22:27;10.70;99.90
46117;DHT22;32591;48.102;11.772;2023-04-24T08:24:54;10.70;99.90
46117;DHT22;32591;48.102;11.772;2023-04-24T08:27:21;10.70;99.90
46117;DHT22;32591;48.102;11.772;2023-04-24T08:29:48;10.80;99.90
46117;DHT22;32591;48.102;11.772;2023-04-24T08:32:16;10.90;99.90
46117;DHT22;32591;48.102;11.772;2023-04-24T08:34:44;11.00;99.90
46117;DHT22;32591;48.102;11.772;2023-04-24T08:37:11;11.00;99.90
46117;DHT22;32591;48.102;11.772;2023-04-24T08:39:38;11.20;99.90
46117;DHT22;32591;48.102;11.772;2023-04-24T08:42:05;11.20;99.90
46117;DHT22;32591;48.102;11.772;2023-04-24T08:44:34;11.20;99.90
46117;DHT22;32591;48.102;11.772;2023-04-24T08:47:02;11.20;99.90
46117;DHT22;32591;48.102;11.772;2023-04-24T08:49:30;11.10;99.90
46117;DHT22;32591;48.102;11.772;2023-04-24T08:51:59;11.00;99.90
46117;DHT22;32591;48.102;11.772;2023-04-24T08:54:26;10.80;99.90
46117;DHT22;32591;48.102;11.772;2023-04-24T08:56:54;10.70;99.90
46117;DHT22;32591;48.102;11.772;2023-04-24T08:59:27;10.50;99.90
46117;DHT22;32591;48.102;11.772;2023-04-24T09:01:55;10.40;99.90
46117;DHT22;32591;48.102;11.772;2023-04-24T09:04:23;10.20;99.90
46117;DHT22;32591;48.102;11.772;2023-04-24T09:06:51;10.10;99.90
46117;DHT22;32591;48.102;11.772;2023-04-24T09:09:20;10.00;99.90
46117;DHT22;32591;48.102;11.772;2023-04-24T09:11:49;10.00;99.90
46117;DHT22;32591;48.102;11.772;2023-04-24T09:14:17;10.10;99.90
46117;DHT22;32591;48.102;11.772;2023-04-24T09:16:44;10.20;99.90
46117;DHT22;32591;48.102;11.772;2023-04-24T09:19:11;10.20;99.90
46117;DHT22;32591;48.102;11.772;2023-04-24T09:21:38;10.10;99.90
46117;DHT22;32591;48.102;11.772;2023-04-24T09:24:07;10.10;99.90
46117;DHT22;32591;48.102;11.772;2023-04-24T09:26:44;10.00;99.90
46117;DHT22;32591;48.102;11.772;2023-04-24T09:29:14;10.00;99.90
46117;DHT22;32591;48.102;11.772;2023-04-24T09:31:42;10.00;99.90
46117;DHT22;32591;48.102;11.772;2023-04-24T09:34:09;10.10;99.90
46117;DHT22;32591;48.102;11.772;2023-04-24T09:36:37;10.20;99.90
46117;DHT22;32591;48.102;11.772;2023-04-24T09:39:08;10.20;99.90
46117;DHT22;32591;48.102;11.772;2023-04-24T09:41:44;10.30;99.90
46117;DHT22;32591;48.102;11.772;2023-04-24T09:44:13;10.40;99.90
46117;DHT22;32591;48.102;11.772;2023-04-24T09:46:44;10.50;99.90
46117;DHT22;32591;48.102;11.772;2023-04-24T09:49:15;10.50;99.90
46117;DHT22;32591;48.102;11.772;2023-04-24T09:51:43;10.70;99.90
46117;DHT22;32591;48.102;11.772;2023-04-24T09:54:15;10.90;99.90
46117;DHT22;32591;48.102;11.772;2023-04-24T09:56:46;11.10;99.90
46117;DHT22;32591;48.102;11.772;2023-04-24T09:59:15;11.40;99.90
46117;DHT22;32591;48.102;11.772;2023-04-24T10:01:42;11.50;99.90
46117;DHT22;32591;48.102;11.772;2023-04-24T10:04:17;11.40;99.90
46117;DHT22;32591;48.102;11.772;2023-04-24T10:06:46;11.40;99.90
46117;DHT22;32591;48.102;11.772;2023-04-24T10:09:14;11.50;99.90
46117;DHT22;32591;48.102;11.772;2023-04-24T10:11:42;11.60;99.90
46117;DHT22;32591;48.102;11.772;2023-04-24T10:14:13;11.60;99.90
46117;DHT22;32591;48.102;11.772;2023-04-24T10:16:41;11.70;99.90
46117;DHT22;32591;48.102;11.772;2023-04-24T10:19:10;11.60;99.90
46117;DHT22;32591;48.102;11.772;2023-04-24T10:21:40;11.50;99.90
46117;DHT22;32591;48.102;11.772;2023-04-24T10:24:12;11.60;99.90
46117;DHT22;32591;48.102;11.772;2023-04-24T10:26:41;11.60;99.90
46117;DHT22;32591;48.102;11.772;2023-04-24T10:29:08;11.60;99.90
46117;DHT22;32591;48.102;11.772;2023-04-24T10:31:40;11.70;99.90
46117;DHT22;32591;48.102;11.772;2023-04-24T10:34:08;11.80;99.90
46117;DHT22;32591;48.102;11.772;2023-04-24T10:36:40;11.70;99.90
46117;DHT22;32591;48.102;11.772;2023-04-24T10:39:11;11.90;99.90
46117;DHT22;32591;48.102;11.772;2023-04-24T10:41:40;12.10;99.90
46117;DHT22;32591;48.102;11.772;2023-04-24T10:44:08;12.20;99.90
46117;DHT22;32591;48.102;11.772;2023-04-24T10:46:37;12.30;99.90
46117;DHT22;32591;48.102;11.772;2023-04-24T10:49:07;12.50;99.90
46117;DHT22;32591;48.102;11.772;2023-04-24T10:51:46;12.60;99.90
46117;DHT22;32591;48.102;11.772;2023-04-24T10:54:24;12.80;99.90
46117;DHT22;32591;48.102;11.772;2023-04-24T10:56:53;12.70;99.90
46117;DHT22;32591;48.102;11.772;2023-04-24T10:59:27;12.50;99.90
46117;DHT22;32591;48.102;11.772;2023-04-24T11:01:56;12.30;99.90
46117;DHT22;32591;48.102;11.772;2023-04-24T11:04:30;12.30;99.90
46117;DHT22;32591;48.102;11.772;2023-04-24T11:06:58;12.20;99.90
46117;DHT22;32591;48.102;11.772;2023-04-24T11:09:26;12.10;99.90
46117;DHT22;32591;48.102;11.772;2023-04-24T11:12:03;11.90;99.90
46117;DHT22;32591;48.102;11.772;2023-04-24T11:15:00;11.50;99.90
46117;DHT22;32591;48.102;11.772;2023-04-24T11:17:33;10.70;99.90
46117;DHT22;32591;48.102;11.772;2023-04-24T11:20:03;10.10;99.90
46117;DHT22;32591;48.102;11.772;2023-04-24T11:22:34;9.90;99.90
46117;DHT22;32591;48.102;11.772;2023-04-24T11:25:02;10.00;99.90
46117;DHT22;32591;48.102;11.772;2023-04-24T11:27:31;10.00;99.90
46117;DHT22;32591;48.102;11.772;2023-04-24T11:30:00;10.30;99.90
46117;DHT22;32591;48.102;11.772;2023-04-24T11:32:30;10.80;99.90
46117;DHT22;32591;48.102;11.772;2023-04-24T11:35:02;11.10;99.90
46117;DHT22;32591;48.102;11.772;2023-04-24T11:37:34;11.30;99.90
46117;DHT22;32591;48.102;11.772;2023-04-24T11:40:04;11.40;99.90
46117;DHT22;32591;48.102;11.772;2023-04-24T11:42:34;11.60;99.90
46117;DHT22;32591;48.102;11.772;2023-04-24T11:45:07;11.60;99.90
46117;DHT22;32591;48.102;11.772;2023-04-24T11:47:36;11.70;99.90
46117;DHT22;32591;48.102;11.772;2023-04-24T11:50:06;11.70;99.90
46117;DHT22;32591;48.102;11.772;2023-04-24T11:52:37;11.70;99.90
46117;DHT22;32591;48.102;11.772;2023-04-24T11:55:07;11.60;99.90
46117;DHT22;32591;48.102;11.772;2023-04-24T11:57:35;11.60;99.90
46117;DHT22;32591;48.102;11.772;2023-04-24T12:00:03;11.70;99.90
46117;DHT22;32591;48.102;11.772;2023-04-24T12:02:31;12.00;99.90
46117;DHT22;32591;48.102;11.772;2023-04-24T12:05:00;12.20;99.90
46117;DHT22;32591;48.102;11.772;2023-04-24T12:07:27;12.30;99.90
46117;DHT22;32591;48.102;11.772;2023-04-24T12:09:57;12.50;99.90
46117;DHT22;32591;48.102;11.772;2023-04-24T12:12:27;12.60;99.90
46117;DHT22;32591;48.102;11.772;2023-04-24T12:14:56;12.60;99.90
46117;DHT22;32591;48.102;11.772;2023-04-24T12:17:24;12.40;99.90
46117;DHT22;32591;48.102;11.772;2023-04-24T12:19:57;12.20;99.90
46117;DHT22;32591;48.102;11.772;2023-04-24T12:22:28;12.10;99.90
46117;DHT22;32591;48.102;11.772;2023-04-24T12:24:57;11.80;99.90
46117;DHT22;32591;48.102;11.772;2023-04-24T12:27:26;11.70;99.90
46117;DHT22;32591;48.102;11.772;2023-04-24T12:29:56;11.50;99.90
46117;DHT22;32591;48.102;11.772;2023-04-24T12:32:23;11.50;99.90
46117;DHT22;32591;48.102;11.772;2023-04-24T12:34:52;11.50;99.90
46117;DHT22;32591;48.102;11.772;2023-04-24T12:37:23;11.50;99.90
46117;DHT22;32591;48.102;11.772;2023-04-24T12:40:02;11.50;99.90
46117;DHT22;32591;48.102;11.772;2023-04-24T12:42:32;11.50;99.90
46117;DHT22;32591;48.102;11.772;2023-04-24T12:45:00;11.60;99.90
46117;DHT22;32591;48.102;11.772;2023-04-24T12:47:28;11.60;99.90
46117;DHT22;32591;48.102;11.772;2023-04-24T12:49:55;11.70;99.90
46117;DHT22;32591;48.102;11.772;2023-04-24T12:52:23;11.80;99.90
46117;DHT22;32591;48.102;11.772;2023-04-24T12:54:53;12.00;99.90
46117;DHT22;32591;48.102;11.772;2023-04-24T12:57:21;12.10;99.90
46117;DHT22;32591;48.102;11.772;2023-04-24T12:59:48;12.10;99.90
46117;DHT22;32591;48.102;11.772;2023-04-24T13:02:16;12.10;99.90
46117;DHT22;32591;48.102;11.772;2023-04-24T13:04:44;11.90;99.90
46117;DHT22;32591;48.102;11.772;2023-04-24T13:07:12;11.90;99.90
46117;DHT22;32591;48.102;11.772;2023-04-24T13:09:41;11.70;99.90
46117;DHT22;32591;48.102;11.772;2023-04-24T13:12:09;11.70;99.90
46117;DHT22;32591;48.102;11.772;2023-04-24T13:14:36;11.80;99.90
46117;DHT22;32591;48.102;11.772;2023-04-24T13:17:04;11.90;99.90
46117;DHT22;32591;48.102;11.772;2023-04-24T13:19:36;12.00;99.90
46117;DHT22;32591;48.102;11.772;2023-04-24T13:22:03;11.90;99.90
46117;DHT22;32591;48.102;11.772;2023-04-24T13:24:31;11.90;99.90
46117;DHT22;32591;48.102;11.772;2023-04-24T13:27:00;12.00;99.90
46117;DHT22;32591;48.102;11.772;2023-04-24T13:29:28;12.10;99.90
46117;DHT22;32591;48.102;11.772;2023-04-24T13:31:55;12.10;99.90
46117;DHT22;32591;48.102;11.772;2023-04-24T13:34:22;12.30;99.90
46117;DHT22;32591;48.102;11.772;2023-04-24T13:36:51;12.30;99.90
46117;DHT22;32591;48.102;11.772;2023-04-24T13:39:19;12.30;99.90
46117;DHT22;32591;48.102;11.772;2023-04-24T13:41:46;12.20;99.90
46117;DHT22;32591;48.102;11.772;2023-04-24T13:44:15;12.20;99.90
46117;DHT22;32591;48.102;11.772;2023-04-24T13:46:43;12.10;99.90
46117;DHT22;32591;48.102;11.772;2023-04-24T13:49:12;12.10;99.90
46117;DHT22;32591;48.102;11.772;2023-04-24T13:51:40;12.10;99.90
46117;DHT22;32591;48.102;11.772;2023-04-24T13:54:08;12.00;99.90
46117;DHT22;32591;48.102;11.772;2023-04-24T13:56:35;12.10;99.90
46117;DHT22;32591;48.102;11.772;2023-04-24T13:59:02;12.10;99.90
46117;DHT22;32591;48.102;11.772;2023-04-24T14:01:30;12.20;99.90
46117;DHT22;32591;48.102;11.772;2023-04-24T14:03:57;12.20;99.90
46117;DHT22;32591;48.102;11.772;2023-04-24T14:06:25;12.30;99.90
46117;DHT22;32591;48.102;11.772;2023-04-24T14:08:52;12.20;99.90
46117;DHT22;32591;48.102;11.772;2023-04-24T14:11:19;12.20;99.90
46117;DHT22;32591;48.102;11.772;2023-04-24T14:13:46;12.10;99.90
46117;DHT22;32591;48.102;11.772;2023-04-24T14:16:13;12.10;99.90
46117;DHT22;32591;48.102;11.772;2023-04-24T14:18:42;12.20;99.90
46117;DHT22;32591;48.102;11.772;2023-04-24T14:21:09;12.20;99.90
46117;DHT22;32591;48.102;11.772;2023-04-24T14:23:36;12.30;99.90
46117;DHT22;32591;48.102;11.772;2023-04-24T14:26:03;12.30;99.90
46117;DHT22;32591;48.102;11.772;2023-04-24T14:28:30;12.20;99.90
46117;DHT22;32591;48.102;11.772;2023-04-24T14:30:57;12.30;99.90
46117;DHT22;32591;48.102;11.772;2023-04-24T14:33:24;12.50;99.90
46117;DHT22;32591;48.102;11.772;2023-04-24T14:35:52;12.50;99.90
46117;DHT22;32591;48.102;11.772;2023-04-24T14:38:20;12.50;99.90
46117;DHT22;32591;48.102;11.772;2023-04-24T14:40:47;12.50;99.90
46117;DHT22;32591;48.102;11.772;2023-04-24T14:43:14;12.50;99.90
46117;DHT22;32591;48.102;11.772;2023-04-24T14:45:41;12.40;99.90
46117;DHT22;32591;48.102;11.772;2023-04-24T14:48:08;12.60;99.90
46117;DHT22;32591;48.102;11.772;2023-04-24T14:50:36;12.70;99.90
46117;DHT22;32591;48.102;11.772;2023-04-24T14:53:05;12.60;99.90
46117;DHT22;32591;48.102;11.772;2023-04-24T14:55:32;12.70;99.90
46117;DHT22;32591;48.102;11.772;2023-04-24T14:58:02;12.90;99.60
46117;DHT22;32591;48.102;11.772;2023-04-24T15:00:29;12.90;99.60
46117;DHT22;32591;48.102;11.772;2023-04-24T15:02:56;13.00;98.90
46117;DHT22;32591;48.102;11.772;2023-04-24T15:05:23;13.10;99.20
46117;DHT22;32591;48.102;11.772;2023-04-24T15:07:50;13.20;98.40
46117;DHT22;32591;48.102;11.772;2023-04-24T15:10:18;13.40;97.90
46117;DHT22;32591;48.102;11.772;2023-04-24T15:12:48;13.40;96.30
46117;DHT22;32591;48.102;11.772;2023-04-24T15:15:15;13.20;94.90
46117;DHT22;32591;48.102;11.772;2023-04-24T15:17:42;13.00;95.60
46117;DHT22;32591;48.102;11.772;2023-04-24T15:20:10;13.00;96.30
46117;DHT22;32591;48.102;11.772;2023-04-24T15:22:37;13.00;96.00
46117;DHT22;32591;48.102;11.772;2023-04-24T15:25:04;13.10;95.70